< < Back
Terminal Aerodrome Forecast


Current Version              Previous Versions:   1  2  3  4  5  6  7  8  9  

Terminal Aerodrome Forecast

123
FTUS42 KCHS 181739
TAFSAV
TAF
KSAV 181739Z 1818/1918 14005KT P6SM VCSH BKN015
      TEMPO 1818/1820 2SM RA BR BKN010
     FM182000 15005KT P6SM VCSH SCT020 BKN035
     FM190600 12004KT 3SM SHRA BR BKN005
     FM191200 17008KT P6SM VCSH SCT010 BKN020=

Latest METAR

588
SAUS80 KWBC 182000 RRA
MTRSAV
METAR KSAV 181953Z 07008KT 10SM SCT016 BKN021 BKN030 24/21 A2992 RMK AO2
RAB25E38 SLP131 P0001 T02390206


USA.gov is the U.S. government's official web portal to all federal, state and local government web resources and services.